sensor_id;sensor_type;location;lat;lon;timestamp;pressure;altitude;pressure_sealevel;temperature;humidity
37904;BME280;23738;50.422;18.758;2022-11-20T00:01:18;98219.06;;;-5.30;66.67
37904;BME280;23738;50.422;18.758;2022-11-20T00:03:47;98216.13;;;-5.31;66.72
37904;BME280;23738;50.422;18.758;2022-11-20T00:06:16;98213.75;;;-5.34;66.69
37904;BME280;23738;50.422;18.758;2022-11-20T00:08:43;98210.02;;;-5.36;66.74
37904;BME280;23738;50.422;18.758;2022-11-20T00:11:18;98204.05;;;-5.36;66.80
37904;BME280;23738;50.422;18.758;2022-11-20T00:13:43;98206.39;;;-5.33;66.81
37904;BME280;23738;50.422;18.758;2022-11-20T00:16:11;98200.31;;;-5.32;66.87
37904;BME280;23738;50.422;18.758;2022-11-20T00:18:37;98200.67;;;-5.31;66.88
37904;BME280;23738;50.422;18.758;2022-11-20T00:21:05;98196.91;;;-5.33;66.81
37904;BME280;23738;50.422;18.758;2022-11-20T00:23:32;98197.16;;;-5.36;66.83
37904;BME280;23738;50.422;18.758;2022-11-20T00:26:03;98196.17;;;-5.41;66.80
37904;BME280;23738;50.422;18.758;2022-11-20T00:28:34;98197.45;;;-5.41;66.89
37904;BME280;23738;50.422;18.758;2022-11-20T00:31:07;98194.88;;;-5.41;66.92
37904;BME280;23738;50.422;18.758;2022-11-20T00:33:35;98187.52;;;-5.40;66.87
37904;BME280;23738;50.422;18.758;2022-11-20T00:36:02;98194.30;;;-5.44;66.82
37904;BME280;23738;50.422;18.758;2022-11-20T00:38:30;98193.94;;;-5.45;66.87
37904;BME280;23738;50.422;18.758;2022-11-20T00:41:02;98193.11;;;-5.46;66.93
37904;BME280;23738;50.422;18.758;2022-11-20T00:43:30;98201.09;;;-5.43;66.96
37904;BME280;23738;50.422;18.758;2022-11-20T00:46:01;98194.76;;;-5.45;66.93
37904;BME280;23738;50.422;18.758;2022-11-20T00:48:28;98193.58;;;-5.46;66.92
37904;BME280;23738;50.422;18.758;2022-11-20T00:50:54;98198.46;;;-5.49;66.91
37904;BME280;23738;50.422;18.758;2022-11-20T00:53:21;98189.09;;;-5.50;66.97
37904;BME280;23738;50.422;18.758;2022-11-20T00:56:05;98192.39;;;-5.48;66.99
37904;BME280;23738;50.422;18.758;2022-11-20T00:58:31;98186.31;;;-5.47;66.94
37904;BME280;23738;50.422;18.758;2022-11-20T01:01:08;98187.34;;;-5.49;67.01
37904;BME280;23738;50.422;18.758;2022-11-20T01:03:33;98183.12;;;-5.50;66.98
37904;BME280;23738;50.422;18.758;2022-11-20T01:06:02;98174.57;;;-5.51;67.00
37904;BME280;23738;50.422;18.758;2022-11-20T01:08:30;98174.57;;;-5.51;67.00
37904;BME280;23738;50.422;18.758;2022-11-20T01:11:04;98173.65;;;-5.50;67.05
37904;BME280;23738;50.422;18.758;2022-11-20T01:13:32;98172.26;;;-5.48;67.06
37904;BME280;23738;50.422;18.758;2022-11-20T01:16:02;98167.27;;;-5.44;67.08
37904;BME280;23738;50.422;18.758;2022-11-20T01:18:31;98172.28;;;-5.43;67.15
37904;BME280;23738;50.422;18.758;2022-11-20T01:21:04;98172.28;;;-5.43;67.15
37904;BME280;23738;50.422;18.758;2022-11-20T01:23:33;98167.49;;;-5.42;67.13
37904;BME280;23738;50.422;18.758;2022-11-20T01:26:03;98167.49;;;-5.42;67.14
37904;BME280;23738;50.422;18.758;2022-11-20T01:28:31;98169.61;;;-5.41;67.12
37904;BME280;23738;50.422;18.758;2022-11-20T01:30:58;98163.77;;;-5.43;67.13
37904;BME280;23738;50.422;18.758;2022-11-20T01:33:24;98152.39;;;-5.46;67.13
37904;BME280;23738;50.422;18.758;2022-11-20T01:35:51;98159.28;;;-5.47;67.05
37904;BME280;23738;50.422;18.758;2022-11-20T01:38:17;98161.50;;;-5.48;67.18
37904;BME280;23738;50.422;18.758;2022-11-20T01:40:43;98159.55;;;-5.44;67.24
37904;BME280;23738;50.422;18.758;2022-11-20T01:43:17;98160.70;;;-5.43;67.27
37904;BME280;23738;50.422;18.758;2022-11-20T01:45:59;98156.16;;;-5.39;67.33
37904;BME280;23738;50.422;18.758;2022-11-20T01:48:40;98154.67;;;-5.36;67.38
37904;BME280;23738;50.422;18.758;2022-11-20T01:51:07;98147.33;;;-5.29;67.44
37904;BME280;23738;50.422;18.758;2022-11-20T01:53:36;98143.47;;;-5.29;67.37
37904;BME280;23738;50.422;18.758;2022-11-20T01:56:05;98141.81;;;-5.30;67.39
37904;BME280;23738;50.422;18.758;2022-11-20T01:58:36;98139.86;;;-5.27;67.54
37904;BME280;23738;50.422;18.758;2022-11-20T02:01:04;98136.09;;;-5.28;67.42
37904;BME280;23738;50.422;18.758;2022-11-20T02:03:30;98136.32;;;-5.26;67.53
37904;BME280;23738;50.422;18.758;2022-11-20T02:06:19;98141.83;;;-5.25;67.54
37904;BME280;23738;50.422;18.758;2022-11-20T02:08:50;98138.02;;;-5.19;67.68
37904;BME280;23738;50.422;18.758;2022-11-20T02:11:17;98138.95;;;-5.20;67.48
37904;BME280;23738;50.422;18.758;2022-11-20T02:13:44;98131.89;;;-5.24;67.53
37904;BME280;23738;50.422;18.758;2022-11-20T02:16:28;98138.69;;;-5.23;67.55
37904;BME280;23738;50.422;18.758;2022-11-20T02:19:01;98139.52;;;-5.22;67.57
37904;BME280;23738;50.422;18.758;2022-11-20T02:24:12;98155.17;;;-5.25;67.49
37904;BME280;23738;50.422;18.758;2022-11-20T02:26:53;98148.51;;;-5.28;67.50
37904;BME280;23738;50.422;18.758;2022-11-20T02:29:27;98156.23;;;-5.28;67.55
37904;BME280;23738;50.422;18.758;2022-11-20T02:32:00;98157.98;;;-5.28;67.53
37904;BME280;23738;50.422;18.758;2022-11-20T02:34:26;98158.91;;;-5.29;67.57
37904;BME280;23738;50.422;18.758;2022-11-20T02:36:53;98161.33;;;-5.33;67.48
37904;BME280;23738;50.422;18.758;2022-11-20T02:39:19;98159.00;;;-5.36;67.53
37904;BME280;23738;50.422;18.758;2022-11-20T02:41:46;98151.38;;;-5.38;67.55
37904;BME280;23738;50.422;18.758;2022-11-20T02:44:12;98158.76;;;-5.33;67.68
37904;BME280;23738;50.422;18.758;2022-11-20T02:46:38;98158.09;;;-5.30;67.67
37904;BME280;23738;50.422;18.758;2022-11-20T02:49:04;98160.45;;;-5.27;67.74
37904;BME280;23738;50.422;18.758;2022-11-20T02:51:31;98162.20;;;-5.27;67.67
37904;BME280;23738;50.422;18.758;2022-11-20T02:53:58;98166.07;;;-5.27;67.76
37904;BME280;23738;50.422;18.758;2022-11-20T02:56:24;98168.77;;;-5.23;67.87
37904;BME280;23738;50.422;18.758;2022-11-20T02:58:50;98168.78;;;-5.18;67.85
37904;BME280;23738;50.422;18.758;2022-11-20T03:01:16;98167.39;;;-5.16;67.87
37904;BME280;23738;50.422;18.758;2022-11-20T03:03:42;98168.58;;;-5.15;67.81
37904;BME280;23738;50.422;18.758;2022-11-20T03:06:08;98165.38;;;-5.18;67.85
37904;BME280;23738;50.422;18.758;2022-11-20T03:08:34;98171.03;;;-5.19;67.81
37904;BME280;23738;50.422;18.758;2022-11-20T03:11:05;98166.57;;;-5.17;67.99
37904;BME280;23738;50.422;18.758;2022-11-20T03:13:32;98164.97;;;-5.12;68.01
37904;BME280;23738;50.422;18.758;2022-11-20T03:16:07;98164.63;;;-5.08;68.05
37904;BME280;23738;50.422;18.758;2022-11-20T03:18:35;98161.48;;;-5.00;68.17
37904;BME280;23738;50.422;18.758;2022-11-20T03:21:01;98168.65;;;-4.98;68.08
37904;BME280;23738;50.422;18.758;2022-11-20T03:23:29;98167.36;;;-4.98;68.17
37904;BME280;23738;50.422;18.758;2022-11-20T03:26:06;98170.66;;;-4.96;68.18
37904;BME280;23738;50.422;18.758;2022-11-20T03:28:33;98156.60;;;-4.92;68.33
37904;BME280;23738;50.422;18.758;2022-11-20T03:31:05;98155.67;;;-4.91;68.24
37904;BME280;23738;50.422;18.758;2022-11-20T03:33:32;98154.59;;;-4.94;68.22
37904;BME280;23738;50.422;18.758;2022-11-20T03:36:03;98162.00;;;-4.95;68.27
37904;BME280;23738;50.422;18.758;2022-11-20T03:38:30;98162.10;;;-4.96;68.23
37904;BME280;23738;50.422;18.758;2022-11-20T03:41:02;98166.08;;;-4.98;68.24
37904;BME280;23738;50.422;18.758;2022-11-20T03:43:30;98163.60;;;-4.99;68.21
37904;BME280;23738;50.422;18.758;2022-11-20T03:45:56;98166.75;;;-5.02;68.24
37904;BME280;23738;50.422;18.758;2022-11-20T03:48:22;98166.52;;;-5.04;68.19
37904;BME280;23738;50.422;18.758;2022-11-20T03:50:47;98156.43;;;-5.07;68.16
37904;BME280;23738;50.422;18.758;2022-11-20T03:53:14;98155.04;;;-5.06;68.22
37904;BME280;23738;50.422;18.758;2022-11-20T03:55:41;98162.30;;;-5.05;68.20
37904;BME280;23738;50.422;18.758;2022-11-20T03:58:07;98158.55;;;-5.07;68.21
37904;BME280;23738;50.422;18.758;2022-11-20T04:00:33;98162.41;;;-5.07;68.16
37904;BME280;23738;50.422;18.758;2022-11-20T04:03:01;98164.63;;;-5.08;68.17
37904;BME280;23738;50.422;18.758;2022-11-20T04:05:28;98161.22;;;-5.08;68.15
37904;BME280;23738;50.422;18.758;2022-11-20T04:07:53;98159.36;;;-5.06;68.20
37904;BME280;23738;50.422;18.758;2022-11-20T04:10:19;98161.02;;;-5.05;68.20
37904;BME280;23738;50.422;18.758;2022-11-20T04:12:46;98163.13;;;-5.05;68.26
37904;BME280;23738;50.422;18.758;2022-11-20T04:15:11;98162.66;;;-5.04;68.20
37904;BME280;23738;50.422;18.758;2022-11-20T04:17:37;98158.80;;;-5.04;68.31
37904;BME280;23738;50.422;18.758;2022-11-20T04:20:04;98155.16;;;-5.02;68.29
37904;BME280;23738;50.422;18.758;2022-11-20T04:22:30;98158.55;;;-5.01;68.20
37904;BME280;23738;50.422;18.758;2022-11-20T04:24:56;98157.27;;;-5.01;68.25
37904;BME280;23738;50.422;18.758;2022-11-20T04:27:22;98151.06;;;-5.04;68.17
37904;BME280;23738;50.422;18.758;2022-11-20T04:29:48;98152.78;;;-5.10;68.05
37904;BME280;23738;50.422;18.758;2022-11-20T04:32:13;98144.11;;;-5.15;68.12
37904;BME280;23738;50.422;18.758;2022-11-20T04:34:39;98137.92;;;-5.12;68.15
37904;BME280;23738;50.422;18.758;2022-11-20T04:37:05;98139.88;;;-5.16;68.11
37904;BME280;23738;50.422;18.758;2022-11-20T04:39:30;98140.25;;;-5.15;68.11
37904;BME280;23738;50.422;18.758;2022-11-20T04:41:56;98131.80;;;-5.17;68.08
37904;BME280;23738;50.422;18.758;2022-11-20T04:44:41;98132.41;;;-5.19;68.06
37904;BME280;23738;50.422;18.758;2022-11-20T04:47:06;98133.64;;;-5.24;68.01
37904;BME280;23738;50.422;18.758;2022-11-20T04:49:32;98128.95;;;-5.25;68.09
37904;BME280;23738;50.422;18.758;2022-11-20T04:51:59;98122.62;;;-5.26;68.05
37904;BME280;23738;50.422;18.758;2022-11-20T04:54:24;98123.91;;;-5.26;68.04
37904;BME280;23738;50.422;18.758;2022-11-20T04:56:50;98126.47;;;-5.32;67.88
37904;BME280;23738;50.422;18.758;2022-11-20T04:59:16;98126.47;;;-5.32;67.88
37904;BME280;23738;50.422;18.758;2022-11-20T05:01:42;98124.00;;;-5.33;67.97
37904;BME280;23738;50.422;18.758;2022-11-20T05:04:07;98119.45;;;-5.35;67.97
37904;BME280;23738;50.422;18.758;2022-11-20T05:06:34;98114.30;;;-5.35;68.01
37904;BME280;23738;50.422;18.758;2022-11-20T05:09:00;98106.22;;;-5.36;68.03
37904;BME280;23738;50.422;18.758;2022-11-20T05:11:26;98104.83;;;-5.35;68.00
37904;BME280;23738;50.422;18.758;2022-11-20T05:13:53;98096.97;;;-5.33;68.06
37904;BME280;23738;50.422;18.758;2022-11-20T05:16:22;98088.55;;;-5.35;68.04
37904;BME280;23738;50.422;18.758;2022-11-20T05:18:51;98086.56;;;-5.32;68.14
37904;BME280;23738;50.422;18.758;2022-11-20T05:21:18;98086.92;;;-5.31;68.05
37904;BME280;23738;50.422;18.758;2022-11-20T05:23:45;98093.61;;;-5.28;68.12
37904;BME280;23738;50.422;18.758;2022-11-20T05:26:14;98089.39;;;-5.29;68.03
37904;BME280;23738;50.422;18.758;2022-11-20T05:28:41;98094.54;;;-5.29;68.05
37904;BME280;23738;50.422;18.758;2022-11-20T05:31:13;98090.67;;;-5.29;68.16
37904;BME280;23738;50.422;18.758;2022-11-20T05:33:42;98090.58;;;-5.28;68.14
37904;BME280;23738;50.422;18.758;2022-11-20T05:36:09;98094.08;;;-5.29;68.10
37904;BME280;23738;50.422;18.758;2022-11-20T05:38:36;98094.54;;;-5.29;68.02
37904;BME280;23738;50.422;18.758;2022-11-20T05:41:17;98090.53;;;-5.33;67.99
37904;BME280;23738;50.422;18.758;2022-11-20T05:43:43;98099.42;;;-5.37;67.97
37904;BME280;23738;50.422;18.758;2022-11-20T05:46:12;98095.41;;;-5.42;67.97
37904;BME280;23738;50.422;18.758;2022-11-20T05:48:40;98099.88;;;-5.44;68.00
37904;BME280;23738;50.422;18.758;2022-11-20T05:51:09;98102.92;;;-5.38;68.10
37904;BME280;23738;50.422;18.758;2022-11-20T05:53:36;98100.70;;;-5.37;68.10
37904;BME280;23738;50.422;18.758;2022-11-20T05:56:05;98101.64;;;-5.38;68.05
37904;BME280;23738;50.422;18.758;2022-11-20T05:58:33;98087.31;;;-5.48;68.07
37904;BME280;23738;50.422;18.758;2022-11-20T06:01:08;98099.53;;;-5.39;68.12
37904;BME280;23738;50.422;18.758;2022-11-20T06:03:35;98092.27;;;-5.40;68.08
37904;BME280;23738;50.422;18.758;2022-11-20T06:06:02;98095.09;;;-5.37;68.09
37904;BME280;23738;50.422;18.758;2022-11-20T06:08:29;98087.84;;;-5.37;68.17
37904;BME280;23738;50.422;18.758;2022-11-20T06:10:55;98081.41;;;-5.37;68.04
37904;BME280;23738;50.422;18.758;2022-11-20T06:13:22;98080.43;;;-5.42;68.01
37904;BME280;23738;50.422;18.758;2022-11-20T06:15:52;98088.39;;;-5.45;68.01
37904;BME280;23738;50.422;18.758;2022-11-20T06:18:19;98085.47;;;-5.41;68.21
37904;BME280;23738;50.422;18.758;2022-11-20T06:20:46;98089.70;;;-5.40;68.07
37904;BME280;23738;50.422;18.758;2022-11-20T06:23:13;98090.16;;;-5.40;68.16
37904;BME280;23738;50.422;18.758;2022-11-20T06:25:41;98095.20;;;-5.38;68.04
37904;BME280;23738;50.422;18.758;2022-11-20T06:28:08;98089.22;;;-5.45;67.93
37904;BME280;23738;50.422;18.758;2022-11-20T06:30:35;98080.98;;;-5.50;67.99
37904;BME280;23738;50.422;18.758;2022-11-20T06:33:01;98090.92;;;-5.51;67.99
37904;BME280;23738;50.422;18.758;2022-11-20T06:35:27;98099.00;;;-5.50;68.04
37904;BME280;23738;50.422;18.758;2022-11-20T06:37:53;98090.25;;;-5.47;68.06
37904;BME280;23738;50.422;18.758;2022-11-20T06:40:19;98090.14;;;-5.46;68.09
37904;BME280;23738;50.422;18.758;2022-11-20T06:42:45;98088.28;;;-5.44;68.13
37904;BME280;23738;50.422;18.758;2022-11-20T06:45:10;98092.02;;;-5.42;68.10
37904;BME280;23738;50.422;18.758;2022-11-20T06:47:36;98095.77;;;-5.41;68.12
37904;BME280;23738;50.422;18.758;2022-11-20T06:50:02;98088.15;;;-5.42;68.04
37904;BME280;23738;50.422;18.758;2022-11-20T06:52:28;98091.69;;;-5.43;67.97
37904;BME280;23738;50.422;18.758;2022-11-20T06:54:54;98079.34;;;-5.51;68.11
37904;BME280;23738;50.422;18.758;2022-11-20T06:57:20;98088.77;;;-5.38;68.12
37904;BME280;23738;50.422;18.758;2022-11-20T06:59:45;98087.95;;;-5.33;68.18
37904;BME280;23738;50.422;18.758;2022-11-20T07:02:12;98083.52;;;-5.31;68.11
37904;BME280;23738;50.422;18.758;2022-11-20T07:04:38;98087.27;;;-5.35;68.03
37904;BME280;23738;50.422;18.758;2022-11-20T07:07:04;98079.30;;;-5.32;68.13
37904;BME280;23738;50.422;18.758;2022-11-20T07:09:32;98080.73;;;-5.28;68.21
37904;BME280;23738;50.422;18.758;2022-11-20T07:11:58;98077.70;;;-5.22;68.24
37904;BME280;23738;50.422;18.758;2022-11-20T07:14:24;98075.39;;;-5.14;68.28
37904;BME280;23738;50.422;18.758;2022-11-20T07:16:50;98071.89;;;-5.08;68.35
37904;BME280;23738;50.422;18.758;2022-11-20T07:19:16;98064.53;;;-5.01;68.38
37904;BME280;23738;50.422;18.758;2022-11-20T07:21:42;98063.73;;;-4.96;68.39
37904;BME280;23738;50.422;18.758;2022-11-20T07:24:07;98055.66;;;-4.91;68.45
37904;BME280;23738;50.422;18.758;2022-11-20T07:26:33;98054.61;;;-4.83;68.51
37904;BME280;23738;50.422;18.758;2022-11-20T07:28:59;98063.06;;;-4.76;68.56
37904;BME280;23738;50.422;18.758;2022-11-20T07:31:25;98055.57;;;-4.68;68.72
37904;BME280;23738;50.422;18.758;2022-11-20T07:33:50;98056.52;;;-4.57;68.82
37904;BME280;23738;50.422;18.758;2022-11-20T07:36:16;98059.89;;;-4.63;68.48
37904;BME280;23738;50.422;18.758;2022-11-20T07:38:42;98052.42;;;-4.71;68.59
37904;BME280;23738;50.422;18.758;2022-11-20T07:41:08;98056.39;;;-4.67;68.81
37904;BME280;23738;50.422;18.758;2022-11-20T07:43:34;98054.88;;;-4.58;69.03
37904;BME280;23738;50.422;18.758;2022-11-20T07:46:00;98056.53;;;-4.41;69.23
37904;BME280;23738;50.422;18.758;2022-11-20T07:48:26;98057.45;;;-4.25;69.34
37904;BME280;23738;50.422;18.758;2022-11-20T07:50:55;98040.66;;;-4.14;69.44
37904;BME280;23738;50.422;18.758;2022-11-20T07:53:22;98042.30;;;-4.02;69.46
37904;BME280;23738;50.422;18.758;2022-11-20T07:55:49;98052.72;;;-3.92;69.50
37904;BME280;23738;50.422;18.758;2022-11-20T07:58:17;98048.59;;;-3.83;69.54
37904;BME280;23738;50.422;18.758;2022-11-20T08:00:42;98049.14;;;-3.74;69.67
37904;BME280;23738;50.422;18.758;2022-11-20T08:03:08;98046.65;;;-3.65;69.80
37904;BME280;23738;50.422;18.758;2022-11-20T08:05:34;98041.34;;;-3.58;69.79
37904;BME280;23738;50.422;18.758;2022-11-20T08:08:00;98049.06;;;-3.47;69.88
37904;BME280;23738;50.422;18.758;2022-11-20T08:10:25;98051.25;;;-3.36;69.92
37904;BME280;23738;50.422;18.758;2022-11-20T08:12:52;98054.98;;;-3.29;70.00
37904;BME280;23738;50.422;18.758;2022-11-20T08:15:38;98061.01;;;-3.14;70.28
37904;BME280;23738;50.422;18.758;2022-11-20T08:18:06;98060.92;;;-2.97;70.34
37904;BME280;23738;50.422;18.758;2022-11-20T08:20:34;98057.58;;;-2.88;70.33
37904;BME280;23738;50.422;18.758;2022-11-20T08:23:02;98060.47;;;-2.81;70.33
37904;BME280;23738;50.422;18.758;2022-11-20T08:25:31;98064.89;;;-2.72;70.47
37904;BME280;23738;50.422;18.758;2022-11-20T08:27:59;98057.95;;;-2.56;70.65
37904;BME280;23738;50.422;18.758;2022-11-20T08:30:26;98055.49;;;-2.43;70.69
37904;BME280;23738;50.422;18.758;2022-11-20T08:32:53;98056.43;;;-2.28;70.83
37904;BME280;23738;50.422;18.758;2022-11-20T08:35:20;98059.47;;;-2.14;70.82
37904;BME280;23738;50.422;18.758;2022-11-20T08:37:47;98061.31;;;-1.95;71.08
37904;BME280;23738;50.422;18.758;2022-11-20T08:40:14;98070.69;;;-1.79;71.02
37904;BME280;23738;50.422;18.758;2022-11-20T08:42:47;98074.40;;;-1.62;71.08
37904;BME280;23738;50.422;18.758;2022-11-20T08:45:15;98072.96;;;-1.51;71.07
37904;BME280;23738;50.422;18.758;2022-11-20T08:47:42;98078.51;;;-1.40;71.05
37904;BME280;23738;50.422;18.758;2022-11-20T08:50:09;98082.94;;;-1.27;71.14
37904;BME280;23738;50.422;18.758;2022-11-20T08:52:36;98073.13;;;-1.14;71.20
37904;BME280;23738;50.422;18.758;2022-11-20T08:55:02;98069.03;;;-0.97;71.27
37904;BME280;23738;50.422;18.758;2022-11-20T08:57:34;98073.78;;;-0.83;71.25
37904;BME280;23738;50.422;18.758;2022-11-20T09:00:00;98075.07;;;-0.73;71.19
37904;BME280;23738;50.422;18.758;2022-11-20T09:02:26;98074.23;;;-0.64;71.30
37904;BME280;23738;50.422;18.758;2022-11-20T09:04:52;98073.23;;;-0.54;71.25
37904;BME280;23738;50.422;18.758;2022-11-20T09:07:20;98071.30;;;-0.42;71.30
37904;BME280;23738;50.422;18.758;2022-11-20T09:09:46;98072.70;;;-0.34;71.24
37904;BME280;23738;50.422;18.758;2022-11-20T09:12:13;98063.77;;;-0.22;71.28
37904;BME280;23738;50.422;18.758;2022-11-20T09:14:39;98058.09;;;-0.08;71.36
37904;BME280;23738;50.422;18.758;2022-11-20T09:17:05;98057.67;;;0.11;71.46
37904;BME280;23738;50.422;18.758;2022-11-20T09:19:33;98057.85;;;0.27;71.48
37904;BME280;23738;50.422;18.758;2022-11-20T09:21:59;98046.78;;;0.38;71.33
37904;BME280;23738;50.422;18.758;2022-11-20T09:24:26;98046.21;;;0.49;71.39
37904;BME280;23738;50.422;18.758;2022-11-20T09:26:53;98046.83;;;0.60;71.31
37904;BME280;23738;50.422;18.758;2022-11-20T09:29:18;98051.16;;;0.73;71.00
37904;BME280;23738;50.422;18.758;2022-11-20T09:31:44;98049.30;;;0.84;71.18
37904;BME280;23738;50.422;18.758;2022-11-20T09:34:10;98051.20;;;0.95;71.15
37904;BME280;23738;50.422;18.758;2022-11-20T09:36:36;98046.06;;;1.03;71.00
37904;BME280;23738;50.422;18.758;2022-11-20T09:39:02;98030.52;;;1.11;71.10
37904;BME280;23738;50.422;18.758;2022-11-20T09:44:45;98056.08;;;1.42;70.91
37904;BME280;23738;50.422;18.758;2022-11-20T09:53:10;98027.30;;;1.77;70.65
37904;BME280;23738;50.422;18.758;2022-11-20T09:55:48;98022.48;;;1.90;70.87
37904;BME280;23738;50.422;18.758;2022-11-20T10:01:08;98025.68;;;2.22;70.28
37904;BME280;23738;50.422;18.758;2022-11-20T10:03:39;98019.00;;;2.32;70.27
37904;BME280;23738;50.422;18.758;2022-11-20T10:06:37;98021.63;;;2.40;70.32
37904;BME280;23738;50.422;18.758;2022-11-20T10:29:14;97990.84;;;3.17;69.86
37904;BME280;23738;50.422;18.758;2022-11-20T10:32:03;97985.91;;;3.30;69.93
37904;BME280;23738;50.422;18.758;2022-11-20T10:34:32;97980.48;;;3.43;69.61
37904;BME280;23738;50.422;18.758;2022-11-20T10:37:02;97972.66;;;3.43;69.20
37904;BME280;23738;50.422;18.758;2022-11-20T10:42:44;97971.52;;;3.50;69.41
37904;BME280;23738;50.422;18.758;2022-11-20T10:48:10;97968.16;;;3.72;69.39
37904;BME280;23738;50.422;18.758;2022-11-20T10:50:43;97969.92;;;3.76;69.08
37904;BME280;23738;50.422;18.758;2022-11-20T10:56:29;97966.98;;;3.83;69.19
37904;BME280;23738;50.422;18.758;2022-11-20T10:59:27;97962.17;;;3.95;69.13
37904;BME280;23738;50.422;18.758;2022-11-20T11:01:58;97963.77;;;4.00;69.02
37904;BME280;23738;50.422;18.758;2022-11-20T11:07:05;97955.18;;;4.18;69.11
37904;BME280;23738;50.422;18.758;2022-11-20T11:09:43;97953.50;;;4.25;69.01
37904;BME280;23738;50.422;18.758;2022-11-20T11:12:08;97949.68;;;4.36;68.94
37904;BME280;23738;50.422;18.758;2022-11-20T11:14:47;97955.68;;;4.40;68.96
37904;BME280;23738;50.422;18.758;2022-11-20T11:17:29;97950.93;;;4.44;68.75
37904;BME280;23738;50.422;18.758;2022-11-20T11:22:48;97936.93;;;4.55;68.80
37904;BME280;23738;50.422;18.758;2022-11-20T11:25:28;97937.61;;;4.72;68.85
37904;BME280;23738;50.422;18.758;2022-11-20T11:30:46;97940.30;;;4.64;67.69
37904;BME280;23738;50.422;18.758;2022-11-20T11:33:23;97935.13;;;4.56;68.02
37904;BME280;23738;50.422;18.758;2022-11-20T11:35:55;97938.62;;;4.48;67.27
37904;BME280;23738;50.422;18.758;2022-11-20T11:38:38;97939.66;;;4.39;67.15
37904;BME280;23738;50.422;18.758;2022-11-20T11:41:09;97930.72;;;4.38;67.48
37904;BME280;23738;50.422;18.758;2022-11-20T11:43:37;97927.67;;;4.26;66.97
37904;BME280;23738;50.422;18.758;2022-11-20T11:46:32;97923.81;;;4.18;67.27
37904;BME280;23738;50.422;18.758;2022-11-20T11:51:50;97917.69;;;4.07;67.11
37904;BME280;23738;50.422;18.758;2022-11-20T11:57:12;97908.93;;;3.96;67.35
37904;BME280;23738;50.422;18.758;2022-11-20T12:02:38;97915.80;;;3.93;66.90
37904;BME280;23738;50.422;18.758;2022-11-20T12:05:24;97913.05;;;3.90;67.11
37904;BME280;23738;50.422;18.758;2022-11-20T12:08:10;97901.42;;;3.93;66.94
37904;BME280;23738;50.422;18.758;2022-11-20T12:10:56;97898.19;;;3.91;66.58
37904;BME280;23738;50.422;18.758;2022-11-20T12:13:46;97898.19;;;3.91;66.58
37904;BME280;23738;50.422;18.758;2022-11-20T12:16:19;97902.56;;;3.94;67.24
37904;BME280;23738;50.422;18.758;2022-11-20T12:18:50;97895.82;;;4.00;67.08
37904;BME280;23738;50.422;18.758;2022-11-20T12:24:31;97887.20;;;3.95;67.15
37904;BME280;23738;50.422;18.758;2022-11-20T12:30:10;97872.67;;;3.93;67.16
37904;BME280;23738;50.422;18.758;2022-11-20T12:41:41;97860.48;;;3.85;67.12
37904;BME280;23738;50.422;18.758;2022-11-20T12:45:10;97861.50;;;3.80;66.94
37904;BME280;23738;50.422;18.758;2022-11-20T12:53:29;97851.11;;;3.68;67.00
37904;BME280;23738;50.422;18.758;2022-11-20T13:02:28;97842.38;;;3.57;67.02
37904;BME280;23738;50.422;18.758;2022-11-20T13:08:11;97844.70;;;3.43;67.02
37904;BME280;23738;50.422;18.758;2022-11-20T13:10:49;97841.97;;;3.37;67.05
37904;BME280;23738;50.422;18.758;2022-11-20T13:18:48;97836.36;;;3.13;66.99
37904;BME280;23738;50.422;18.758;2022-11-20T13:21:21;97836.07;;;3.04;67.02
37904;BME280;23738;50.422;18.758;2022-11-20T13:23:44;97838.22;;;2.96;67.02
37904;BME280;23738;50.422;18.758;2022-11-20T13:26:22;97830.90;;;2.88;67.11
37904;BME280;23738;50.422;18.758;2022-11-20T13:31:35;97834.06;;;2.67;67.05
37904;BME280;23738;50.422;18.758;2022-11-20T13:34:03;97829.37;;;2.54;67.24
37904;BME280;23738;50.422;18.758;2022-11-20T13:36:31;97833.62;;;2.47;67.17
37904;BME280;23738;50.422;18.758;2022-11-20T13:38:58;97831.33;;;2.40;67.21
37904;BME280;23738;50.422;18.758;2022-11-20T13:41:35;97824.98;;;2.35;67.25
37904;BME280;23738;50.422;18.758;2022-11-20T13:44:13;97833.80;;;2.29;67.32
37904;BME280;23738;50.422;18.758;2022-11-20T13:46:43;97823.22;;;2.23;67.37
37904;BME280;23738;50.422;18.758;2022-11-20T13:49:38;97826.95;;;2.16;67.36
37904;BME280;23738;50.422;18.758;2022-11-20T13:52:30;97824.19;;;2.10;67.49
37904;BME280;23738;50.422;18.758;2022-11-20T14:01:10;97818.00;;;1.95;67.60
37904;BME280;23738;50.422;18.758;2022-11-20T14:03:38;97812.61;;;1.92;67.74
37904;BME280;23738;50.422;18.758;2022-11-20T14:06:10;97818.64;;;1.92;67.82
37904;BME280;23738;50.422;18.758;2022-11-20T14:08:49;97810.19;;;1.95;67.89
37904;BME280;23738;50.422;18.758;2022-11-20T14:14:02;97815.41;;;1.99;68.06
37904;BME280;23738;50.422;18.758;2022-11-20T14:16:30;97824.36;;;2.04;68.10
37904;BME280;23738;50.422;18.758;2022-11-20T14:21:48;97817.52;;;2.03;68.14
37904;BME280;23738;50.422;18.758;2022-11-20T14:24:24;97811.82;;;2.04;68.15
37904;BME280;23738;50.422;18.758;2022-11-20T14:26:51;97803.20;;;1.99;68.13
37904;BME280;23738;50.422;18.758;2022-11-20T14:29:19;97794.24;;;1.98;68.19
37904;BME280;23738;50.422;18.758;2022-11-20T14:31:50;97801.88;;;1.95;68.20
37904;BME280;23738;50.422;18.758;2022-11-20T14:34:23;97803.50;;;1.92;68.28
37904;BME280;23738;50.422;18.758;2022-11-20T14:36:53;97805.80;;;1.91;68.37
37904;BME280;23738;50.422;18.758;2022-11-20T14:39:24;97805.80;;;1.91;68.41
37904;BME280;23738;50.422;18.758;2022-11-20T14:41:57;97801.41;;;1.91;68.44
37904;BME280;23738;50.422;18.758;2022-11-20T14:44:33;97789.84;;;1.90;68.40
37904;BME280;23738;50.422;18.758;2022-11-20T14:47:03;97798.30;;;1.88;68.44
37904;BME280;23738;50.422;18.758;2022-11-20T14:49:30;97799.92;;;1.85;68.50
37904;BME280;23738;50.422;18.758;2022-11-20T14:52:03;97801.70;;;1.84;68.54
37904;BME280;23738;50.422;18.758;2022-11-20T14:54:53;97792.78;;;1.83;68.59
37904;BME280;23738;50.422;18.758;2022-11-20T14:57:32;97783.64;;;1.79;68.58